sensor_id;sensor_type;location;lat;lon;timestamp;temperature;humidity
21163;DHT22;10739;52.198;20.908;2023-09-07T00:01:01;16.20;99.90
21163;DHT22;10739;52.198;20.908;2023-09-07T00:03:29;16.20;99.90
21163;DHT22;10739;52.198;20.908;2023-09-07T00:05:56;16.10;99.90
21163;DHT22;10739;52.198;20.908;2023-09-07T00:08:22;16.10;99.90
21163;DHT22;10739;52.198;20.908;2023-09-07T00:10:49;16.10;99.90
21163;DHT22;10739;52.198;20.908;2023-09-07T00:13:15;16.00;99.90
21163;DHT22;10739;52.198;20.908;2023-09-07T00:15:43;16.00;99.90
21163;DHT22;10739;52.198;20.908;2023-09-07T00:18:10;16.00;99.90
21163;DHT22;10739;52.198;20.908;2023-09-07T00:20:36;16.10;99.90
21163;DHT22;10739;52.198;20.908;2023-09-07T00:23:02;15.90;99.90
21163;DHT22;10739;52.198;20.908;2023-09-07T00:25:29;15.90;99.90
21163;DHT22;10739;52.198;20.908;2023-09-07T00:27:56;15.90;99.90
21163;DHT22;10739;52.198;20.908;2023-09-07T00:30:22;15.90;99.90
21163;DHT22;10739;52.198;20.908;2023-09-07T00:32:48;15.90;99.90
21163;DHT22;10739;52.198;20.908;2023-09-07T00:35:14;15.90;99.90
21163;DHT22;10739;52.198;20.908;2023-09-07T00:37:40;15.90;99.90
21163;DHT22;10739;52.198;20.908;2023-09-07T00:40:07;15.90;99.90
21163;DHT22;10739;52.198;20.908;2023-09-07T00:42:35;15.90;99.90
21163;DHT22;10739;52.198;20.908;2023-09-07T00:45:02;15.90;99.90
21163;DHT22;10739;52.198;20.908;2023-09-07T00:47:28;15.80;99.90
21163;DHT22;10739;52.198;20.908;2023-09-07T00:49:54;15.80;99.90
21163;DHT22;10739;52.198;20.908;2023-09-07T00:52:21;15.70;99.90
21163;DHT22;10739;52.198;20.908;2023-09-07T00:54:47;15.70;99.90
21163;DHT22;10739;52.198;20.908;2023-09-07T00:57:13;15.70;99.90
21163;DHT22;10739;52.198;20.908;2023-09-07T00:59:39;15.60;99.90
21163;DHT22;10739;52.198;20.908;2023-09-07T01:02:06;15.60;99.90
21163;DHT22;10739;52.198;20.908;2023-09-07T01:04:32;15.60;99.90
21163;DHT22;10739;52.198;20.908;2023-09-07T01:07:14;15.60;99.90
21163;DHT22;10739;52.198;20.908;2023-09-07T01:09:44;15.60;99.90
21163;DHT22;10739;52.198;20.908;2023-09-07T01:12:15;15.60;99.90
21163;DHT22;10739;52.198;20.908;2023-09-07T01:14:42;15.60;99.90
21163;DHT22;10739;52.198;20.908;2023-09-07T01:17:09;15.50;99.90
21163;DHT22;10739;52.198;20.908;2023-09-07T01:19:36;15.50;99.90
21163;DHT22;10739;52.198;20.908;2023-09-07T01:22:03;15.50;99.90
21163;DHT22;10739;52.198;20.908;2023-09-07T01:24:30;15.50;99.90
21163;DHT22;10739;52.198;20.908;2023-09-07T01:26:58;15.50;99.90
21163;DHT22;10739;52.198;20.908;2023-09-07T01:29:25;15.40;99.90
21163;DHT22;10739;52.198;20.908;2023-09-07T01:31:55;15.40;99.90
21163;DHT22;10739;52.198;20.908;2023-09-07T01:34:23;15.40;99.90
21163;DHT22;10739;52.198;20.908;2023-09-07T01:36:50;15.40;99.90
21163;DHT22;10739;52.198;20.908;2023-09-07T01:39:16;15.40;99.90
21163;DHT22;10739;52.198;20.908;2023-09-07T01:41:43;15.40;99.90
21163;DHT22;10739;52.198;20.908;2023-09-07T01:44:09;15.30;99.90
21163;DHT22;10739;52.198;20.908;2023-09-07T01:46:35;15.30;99.90
21163;DHT22;10739;52.198;20.908;2023-09-07T01:49:02;15.30;99.90
21163;DHT22;10739;52.198;20.908;2023-09-07T01:51:28;15.30;99.90
21163;DHT22;10739;52.198;20.908;2023-09-07T01:53:54;15.30;99.90
21163;DHT22;10739;52.198;20.908;2023-09-07T01:56:21;15.30;99.90
21163;DHT22;10739;52.198;20.908;2023-09-07T01:58:47;15.30;99.90
21163;DHT22;10739;52.198;20.908;2023-09-07T02:01:40;15.30;99.90
21163;DHT22;10739;52.198;20.908;2023-09-07T02:04:06;15.40;99.90
21163;DHT22;10739;52.198;20.908;2023-09-07T02:06:32;15.40;99.90
21163;DHT22;10739;52.198;20.908;2023-09-07T02:08:58;15.40;99.90
21163;DHT22;10739;52.198;20.908;2023-09-07T02:11:25;15.40;99.90
21163;DHT22;10739;52.198;20.908;2023-09-07T02:13:51;15.40;99.90
21163;DHT22;10739;52.198;20.908;2023-09-07T02:16:17;15.40;99.90
21163;DHT22;10739;52.198;20.908;2023-09-07T02:18:44;15.30;99.90
21163;DHT22;10739;52.198;20.908;2023-09-07T02:21:15;15.30;99.90
21163;DHT22;10739;52.198;20.908;2023-09-07T02:23:41;15.20;99.90
21163;DHT22;10739;52.198;20.908;2023-09-07T02:26:07;15.20;99.90
21163;DHT22;10739;52.198;20.908;2023-09-07T02:28:34;15.20;99.90
21163;DHT22;10739;52.198;20.908;2023-09-07T02:31:04;15.10;99.90
21163;DHT22;10739;52.198;20.908;2023-09-07T02:33:31;15.10;99.90
21163;DHT22;10739;52.198;20.908;2023-09-07T02:35:58;15.10;99.90
21163;DHT22;10739;52.198;20.908;2023-09-07T02:38:24;15.10;99.90
21163;DHT22;10739;52.198;20.908;2023-09-07T02:40:50;15.10;99.90
21163;DHT22;10739;52.198;20.908;2023-09-07T02:43:17;15.20;99.90
21163;DHT22;10739;52.198;20.908;2023-09-07T02:45:43;15.10;99.90
21163;DHT22;10739;52.198;20.908;2023-09-07T02:48:09;15.10;99.90
21163;DHT22;10739;52.198;20.908;2023-09-07T02:50:36;15.10;99.90
21163;DHT22;10739;52.198;20.908;2023-09-07T02:53:02;15.00;99.90
21163;DHT22;10739;52.198;20.908;2023-09-07T02:55:30;15.10;99.90
21163;DHT22;10739;52.198;20.908;2023-09-07T02:57:56;15.00;99.90
21163;DHT22;10739;52.198;20.908;2023-09-07T03:00:23;15.00;99.90
21163;DHT22;10739;52.198;20.908;2023-09-07T03:02:49;15.00;99.90
21163;DHT22;10739;52.198;20.908;2023-09-07T03:05:16;15.00;99.90
21163;DHT22;10739;52.198;20.908;2023-09-07T03:07:45;15.00;99.90
21163;DHT22;10739;52.198;20.908;2023-09-07T03:10:12;14.90;99.90
21163;DHT22;10739;52.198;20.908;2023-09-07T03:12:39;14.90;99.90
21163;DHT22;10739;52.198;20.908;2023-09-07T03:15:06;14.90;99.90
21163;DHT22;10739;52.198;20.908;2023-09-07T03:17:33;14.90;99.90
21163;DHT22;10739;52.198;20.908;2023-09-07T03:19:59;14.90;99.90
21163;DHT22;10739;52.198;20.908;2023-09-07T03:22:25;14.80;99.90
21163;DHT22;10739;52.198;20.908;2023-09-07T03:24:54;14.80;99.90
21163;DHT22;10739;52.198;20.908;2023-09-07T03:27:20;14.80;99.90
21163;DHT22;10739;52.198;20.908;2023-09-07T03:29:49;14.80;99.90
21163;DHT22;10739;52.198;20.908;2023-09-07T03:32:17;14.80;99.90
21163;DHT22;10739;52.198;20.908;2023-09-07T03:34:43;14.80;99.90
21163;DHT22;10739;52.198;20.908;2023-09-07T03:37:09;14.70;99.90
21163;DHT22;10739;52.198;20.908;2023-09-07T03:39:37;14.70;99.90
21163;DHT22;10739;52.198;20.908;2023-09-07T03:42:03;14.60;99.90
21163;DHT22;10739;52.198;20.908;2023-09-07T03:44:30;14.70;99.90
21163;DHT22;10739;52.198;20.908;2023-09-07T03:46:56;14.70;99.90
21163;DHT22;10739;52.198;20.908;2023-09-07T03:49:21;14.70;99.90
21163;DHT22;10739;52.198;20.908;2023-09-07T03:51:48;14.60;99.90
21163;DHT22;10739;52.198;20.908;2023-09-07T03:54:14;14.60;99.90
21163;DHT22;10739;52.198;20.908;2023-09-07T03:56:40;14.60;99.90
21163;DHT22;10739;52.198;20.908;2023-09-07T03:59:06;14.60;99.90
21163;DHT22;10739;52.198;20.908;2023-09-07T04:01:32;14.60;99.90
21163;DHT22;10739;52.198;20.908;2023-09-07T04:03:58;14.60;99.90
21163;DHT22;10739;52.198;20.908;2023-09-07T04:06:25;14.60;99.90
21163;DHT22;10739;52.198;20.908;2023-09-07T04:08:51;14.70;99.90
21163;DHT22;10739;52.198;20.908;2023-09-07T04:11:17;14.70;99.90
21163;DHT22;10739;52.198;20.908;2023-09-07T04:13:43;14.70;99.90
21163;DHT22;10739;52.198;20.908;2023-09-07T04:16:12;14.60;99.90
21163;DHT22;10739;52.198;20.908;2023-09-07T04:18:38;14.70;99.90
21163;DHT22;10739;52.198;20.908;2023-09-07T04:21:08;14.70;99.90
21163;DHT22;10739;52.198;20.908;2023-09-07T04:23:34;14.70;99.90
21163;DHT22;10739;52.198;20.908;2023-09-07T04:26:11;14.70;99.90
21163;DHT22;10739;52.198;20.908;2023-09-07T04:28:38;14.70;99.90
21163;DHT22;10739;52.198;20.908;2023-09-07T04:31:05;14.70;99.90
21163;DHT22;10739;52.198;20.908;2023-09-07T04:33:32;14.70;99.90
21163;DHT22;10739;52.198;20.908;2023-09-07T04:36:12;14.70;99.90
21163;DHT22;10739;52.198;20.908;2023-09-07T04:38:40;14.70;99.90
21163;DHT22;10739;52.198;20.908;2023-09-07T04:41:11;14.80;99.90
21163;DHT22;10739;52.198;20.908;2023-09-07T04:43:40;14.80;99.90
21163;DHT22;10739;52.198;20.908;2023-09-07T04:46:09;14.80;99.90
21163;DHT22;10739;52.198;20.908;2023-09-07T04:48:36;14.90;99.90
21163;DHT22;10739;52.198;20.908;2023-09-07T04:51:07;14.80;99.90
21163;DHT22;10739;52.198;20.908;2023-09-07T04:53:37;14.80;99.90
21163;DHT22;10739;52.198;20.908;2023-09-07T04:56:04;14.90;99.90
21163;DHT22;10739;52.198;20.908;2023-09-07T04:58:32;14.90;99.90
21163;DHT22;10739;52.198;20.908;2023-09-07T05:01:05;15.00;99.90
21163;DHT22;10739;52.198;20.908;2023-09-07T05:03:34;15.10;99.90
21163;DHT22;10739;52.198;20.908;2023-09-07T05:06:02;15.10;99.90
21163;DHT22;10739;52.198;20.908;2023-09-07T05:08:29;15.10;99.90
21163;DHT22;10739;52.198;20.908;2023-09-07T05:11:01;15.10;99.90
21163;DHT22;10739;52.198;20.908;2023-09-07T05:13:28;15.20;99.90
21163;DHT22;10739;52.198;20.908;2023-09-07T05:15:56;15.30;99.90
21163;DHT22;10739;52.198;20.908;2023-09-07T05:18:23;15.30;99.90
21163;DHT22;10739;52.198;20.908;2023-09-07T05:20:49;15.40;99.90
21163;DHT22;10739;52.198;20.908;2023-09-07T05:23:18;15.50;99.90
21163;DHT22;10739;52.198;20.908;2023-09-07T05:25:45;15.50;99.90
21163;DHT22;10739;52.198;20.908;2023-09-07T05:28:13;15.60;99.90
21163;DHT22;10739;52.198;20.908;2023-09-07T05:30:41;15.60;99.90
21163;DHT22;10739;52.198;20.908;2023-09-07T05:33:13;15.70;99.90
21163;DHT22;10739;52.198;20.908;2023-09-07T05:35:40;15.80;99.90
21163;DHT22;10739;52.198;20.908;2023-09-07T05:38:08;15.80;99.90
21163;DHT22;10739;52.198;20.908;2023-09-07T05:40:40;15.90;99.90
21163;DHT22;10739;52.198;20.908;2023-09-07T05:43:07;16.00;99.90
21163;DHT22;10739;52.198;20.908;2023-09-07T05:45:39;16.00;99.90
21163;DHT22;10739;52.198;20.908;2023-09-07T05:48:07;16.10;99.90
21163;DHT22;10739;52.198;20.908;2023-09-07T05:50:35;16.20;99.90
21163;DHT22;10739;52.198;20.908;2023-09-07T05:53:03;16.30;99.90
21163;DHT22;10739;52.198;20.908;2023-09-07T05:55:30;16.50;99.90
21163;DHT22;10739;52.198;20.908;2023-09-07T05:57:57;16.50;99.90
21163;DHT22;10739;52.198;20.908;2023-09-07T06:00:24;16.50;99.90
21163;DHT22;10739;52.198;20.908;2023-09-07T06:02:50;16.60;99.90
21163;DHT22;10739;52.198;20.908;2023-09-07T06:05:17;16.70;99.90
21163;DHT22;10739;52.198;20.908;2023-09-07T06:07:44;16.70;99.90
21163;DHT22;10739;52.198;20.908;2023-09-07T06:10:10;16.80;99.90
21163;DHT22;10739;52.198;20.908;2023-09-07T06:12:37;16.90;99.90
21163;DHT22;10739;52.198;20.908;2023-09-07T06:15:03;17.00;99.90
21163;DHT22;10739;52.198;20.908;2023-09-07T06:17:30;17.20;99.90
21163;DHT22;10739;52.198;20.908;2023-09-07T06:19:56;17.30;99.90
21163;DHT22;10739;52.198;20.908;2023-09-07T06:22:23;17.40;99.90
21163;DHT22;10739;52.198;20.908;2023-09-07T06:24:49;17.60;99.90
21163;DHT22;10739;52.198;20.908;2023-09-07T06:27:15;17.80;99.90
21163;DHT22;10739;52.198;20.908;2023-09-07T06:29:41;17.80;99.90
21163;DHT22;10739;52.198;20.908;2023-09-07T06:32:07;17.90;99.90
21163;DHT22;10739;52.198;20.908;2023-09-07T06:34:33;18.10;99.90
21163;DHT22;10739;52.198;20.908;2023-09-07T06:36:59;18.20;99.90
21163;DHT22;10739;52.198;20.908;2023-09-07T06:39:25;18.40;99.90
21163;DHT22;10739;52.198;20.908;2023-09-07T06:41:52;18.60;99.90
21163;DHT22;10739;52.198;20.908;2023-09-07T06:44:18;18.70;99.90
21163;DHT22;10739;52.198;20.908;2023-09-07T06:46:44;18.90;99.90
21163;DHT22;10739;52.198;20.908;2023-09-07T06:49:10;19.00;99.90
21163;DHT22;10739;52.198;20.908;2023-09-07T06:51:36;19.30;99.90
21163;DHT22;10739;52.198;20.908;2023-09-07T06:54:03;19.40;99.90
21163;DHT22;10739;52.198;20.908;2023-09-07T06:56:29;19.50;99.90
21163;DHT22;10739;52.198;20.908;2023-09-07T06:58:57;19.70;99.90
21163;DHT22;10739;52.198;20.908;2023-09-07T07:01:24;20.20;99.90
21163;DHT22;10739;52.198;20.908;2023-09-07T07:03:50;21.30;99.90
21163;DHT22;10739;52.198;20.908;2023-09-07T07:06:16;22.50;99.90
21163;DHT22;10739;52.198;20.908;2023-09-07T07:08:42;23.00;99.90
21163;DHT22;10739;52.198;20.908;2023-09-07T07:11:08;23.20;99.90
21163;DHT22;10739;52.198;20.908;2023-09-07T07:13:34;22.90;99.90
21163;DHT22;10739;52.198;20.908;2023-09-07T07:16:00;22.90;99.90
21163;DHT22;10739;52.198;20.908;2023-09-07T07:18:26;22.80;99.90
21163;DHT22;10739;52.198;20.908;2023-09-07T07:20:52;22.70;99.90
21163;DHT22;10739;52.198;20.908;2023-09-07T07:23:18;22.80;99.90
21163;DHT22;10739;52.198;20.908;2023-09-07T07:25:44;22.90;99.90
21163;DHT22;10739;52.198;20.908;2023-09-07T07:28:10;22.90;99.90
21163;DHT22;10739;52.198;20.908;2023-09-07T07:30:37;23.00;99.90
21163;DHT22;10739;52.198;20.908;2023-09-07T07:33:06;23.20;99.90
21163;DHT22;10739;52.198;20.908;2023-09-07T07:35:36;23.20;99.90
21163;DHT22;10739;52.198;20.908;2023-09-07T07:38:03;23.20;99.90
21163;DHT22;10739;52.198;20.908;2023-09-07T07:40:30;23.30;99.90
21163;DHT22;10739;52.198;20.908;2023-09-07T07:42:56;23.50;99.90
21163;DHT22;10739;52.198;20.908;2023-09-07T07:45:23;23.60;99.90
21163;DHT22;10739;52.198;20.908;2023-09-07T07:47:49;23.80;99.90
21163;DHT22;10739;52.198;20.908;2023-09-07T07:50:16;24.00;99.90
21163;DHT22;10739;52.198;20.908;2023-09-07T07:52:44;24.20;99.90
21163;DHT22;10739;52.198;20.908;2023-09-07T07:55:11;24.30;99.90
21163;DHT22;10739;52.198;20.908;2023-09-07T07:57:40;24.40;99.90
21163;DHT22;10739;52.198;20.908;2023-09-07T08:00:07;24.30;99.90
21163;DHT22;10739;52.198;20.908;2023-09-07T08:02:34;24.70;99.90
21163;DHT22;10739;52.198;20.908;2023-09-07T08:05:01;24.70;99.90
21163;DHT22;10739;52.198;20.908;2023-09-07T08:07:27;24.60;99.90
21163;DHT22;10739;52.198;20.908;2023-09-07T08:09:53;24.50;99.90
21163;DHT22;10739;52.198;20.908;2023-09-07T08:12:19;24.50;99.90
21163;DHT22;10739;52.198;20.908;2023-09-07T08:14:45;24.60;99.90
21163;DHT22;10739;52.198;20.908;2023-09-07T08:17:12;24.80;99.90
21163;DHT22;10739;52.198;20.908;2023-09-07T08:19:38;24.80;99.90
21163;DHT22;10739;52.198;20.908;2023-09-07T08:22:05;25.20;99.90
21163;DHT22;10739;52.198;20.908;2023-09-07T08:24:32;25.30;99.90
21163;DHT22;10739;52.198;20.908;2023-09-07T08:26:58;25.60;99.90
21163;DHT22;10739;52.198;20.908;2023-09-07T08:29:26;26.00;99.90
21163;DHT22;10739;52.198;20.908;2023-09-07T08:31:53;26.60;99.90
21163;DHT22;10739;52.198;20.908;2023-09-07T08:34:20;27.70;99.90
21163;DHT22;10739;52.198;20.908;2023-09-07T08:36:48;28.30;98.90
21163;DHT22;10739;52.198;20.908;2023-09-07T08:39:16;28.70;98.20
21163;DHT22;10739;52.198;20.908;2023-09-07T08:41:43;29.30;97.10
21163;DHT22;10739;52.198;20.908;2023-09-07T08:44:10;29.50;96.20
21163;DHT22;10739;52.198;20.908;2023-09-07T08:46:37;29.70;96.00
21163;DHT22;10739;52.198;20.908;2023-09-07T08:49:04;30.00;95.20
21163;DHT22;10739;52.198;20.908;2023-09-07T08:51:30;30.40;95.00
21163;DHT22;10739;52.198;20.908;2023-09-07T08:54:02;30.60;93.80
21163;DHT22;10739;52.198;20.908;2023-09-07T08:56:30;30.90;93.50
21163;DHT22;10739;52.198;20.908;2023-09-07T08:58:56;30.50;93.30
21163;DHT22;10739;52.198;20.908;2023-09-07T09:01:22;30.70;92.90
21163;DHT22;10739;52.198;20.908;2023-09-07T09:03:49;31.10;92.00
21163;DHT22;10739;52.198;20.908;2023-09-07T09:06:21;31.10;91.80
21163;DHT22;10739;52.198;20.908;2023-09-07T09:08:52;31.40;90.80
21163;DHT22;10739;52.198;20.908;2023-09-07T09:11:20;31.40;90.40
21163;DHT22;10739;52.198;20.908;2023-09-07T09:13:49;31.30;90.70
21163;DHT22;10739;52.198;20.908;2023-09-07T09:16:18;31.30;90.40
21163;DHT22;10739;52.198;20.908;2023-09-07T09:18:55;30.80;90.70
21163;DHT22;10739;52.198;20.908;2023-09-07T09:21:24;31.30;90.30
21163;DHT22;10739;52.198;20.908;2023-09-07T09:23:57;31.70;89.90
21163;DHT22;10739;52.198;20.908;2023-09-07T09:26:24;32.30;88.10
21163;DHT22;10739;52.198;20.908;2023-09-07T09:28:50;32.80;86.40
21163;DHT22;10739;52.198;20.908;2023-09-07T09:31:18;32.80;85.30
21163;DHT22;10739;52.198;20.908;2023-09-07T09:33:49;33.10;84.30
21163;DHT22;10739;52.198;20.908;2023-09-07T09:36:19;33.30;82.90
21163;DHT22;10739;52.198;20.908;2023-09-07T09:38:50;33.70;81.60
21163;DHT22;10739;52.198;20.908;2023-09-07T09:41:19;33.70;80.40
21163;DHT22;10739;52.198;20.908;2023-09-07T09:43:47;33.00;81.10
21163;DHT22;10739;52.198;20.908;2023-09-07T09:46:20;33.40;80.60
21163;DHT22;10739;52.198;20.908;2023-09-07T09:48:48;33.90;78.70
21163;DHT22;10739;52.198;20.908;2023-09-07T09:51:15;33.80;77.30
21163;DHT22;10739;52.198;20.908;2023-09-07T09:53:44;33.80;77.00
21163;DHT22;10739;52.198;20.908;2023-09-07T09:56:11;33.80;77.40
21163;DHT22;10739;52.198;20.908;2023-09-07T09:58:39;33.90;77.20
21163;DHT22;10739;52.198;20.908;2023-09-07T10:01:06;33.30;77.50
21163;DHT22;10739;52.198;20.908;2023-09-07T10:03:37;33.50;77.50
21163;DHT22;10739;52.198;20.908;2023-09-07T10:06:18;33.20;76.00
21163;DHT22;10739;52.198;20.908;2023-09-07T10:09:03;32.80;76.90
21163;DHT22;10739;52.198;20.908;2023-09-07T10:11:37;32.90;78.30
21163;DHT22;10739;52.198;20.908;2023-09-07T10:14:06;33.30;76.80
21163;DHT22;10739;52.198;20.908;2023-09-07T10:16:46;33.20;76.20
21163;DHT22;10739;52.198;20.908;2023-09-07T10:21:46;32.90;77.20
21163;DHT22;10739;52.198;20.908;2023-09-07T10:24:26;32.60;78.20
21163;DHT22;10739;52.198;20.908;2023-09-07T10:27:02;32.60;77.00
21163;DHT22;10739;52.198;20.908;2023-09-07T10:29:42;32.60;78.00
21163;DHT22;10739;52.198;20.908;2023-09-07T10:32:15;32.60;76.90
21163;DHT22;10739;52.198;20.908;2023-09-07T10:34:42;32.80;75.10
21163;DHT22;10739;52.198;20.908;2023-09-07T10:37:10;33.20;74.60
21163;DHT22;10739;52.198;20.908;2023-09-07T10:39:43;33.70;74.70
21163;DHT22;10739;52.198;20.908;2023-09-07T10:42:20;33.70;74.40
21163;DHT22;10739;52.198;20.908;2023-09-07T10:44:50;33.50;73.90
21163;DHT22;10739;52.198;20.908;2023-09-07T10:47:17;32.80;73.00
21163;DHT22;10739;52.198;20.908;2023-09-07T10:49:44;31.90;75.70
21163;DHT22;10739;52.198;20.908;2023-09-07T10:52:10;31.00;76.50
21163;DHT22;10739;52.198;20.908;2023-09-07T10:54:36;30.10;78.30
21163;DHT22;10739;52.198;20.908;2023-09-07T10:57:10;29.50;80.10
21163;DHT22;10739;52.198;20.908;2023-09-07T10:59:44;29.00;81.20
21163;DHT22;10739;52.198;20.908;2023-09-07T11:02:11;28.40;81.60
21163;DHT22;10739;52.198;20.908;2023-09-07T11:04:37;28.10;82.90
21163;DHT22;10739;52.198;20.908;2023-09-07T11:07:03;27.90;83.50
21163;DHT22;10739;52.198;20.908;2023-09-07T11:09:30;27.90;83.80
21163;DHT22;10739;52.198;20.908;2023-09-07T11:12:03;28.00;84.90
21163;DHT22;10739;52.198;20.908;2023-09-07T11:14:30;28.00;85.00
21163;DHT22;10739;52.198;20.908;2023-09-07T11:16:56;27.80;84.60
21163;DHT22;10739;52.198;20.908;2023-09-07T11:19:22;27.90;86.00
21163;DHT22;10739;52.198;20.908;2023-09-07T11:21:48;27.90;85.70
21163;DHT22;10739;52.198;20.908;2023-09-07T11:24:16;27.80;85.50
21163;DHT22;10739;52.198;20.908;2023-09-07T11:26:44;27.60;84.90
21163;DHT22;10739;52.198;20.908;2023-09-07T11:29:14;27.10;84.50
21163;DHT22;10739;52.198;20.908;2023-09-07T11:31:41;26.90;83.90
21163;DHT22;10739;52.198;20.908;2023-09-07T11:34:13;27.10;85.20
21163;DHT22;10739;52.198;20.908;2023-09-07T11:36:40;27.30;84.70
21163;DHT22;10739;52.198;20.908;2023-09-07T11:39:07;27.60;85.00
21163;DHT22;10739;52.198;20.908;2023-09-07T11:41:41;27.80;84.90
21163;DHT22;10739;52.198;20.908;2023-09-07T11:44:08;27.90;86.20
21163;DHT22;10739;52.198;20.908;2023-09-07T11:46:34;27.80;85.60
21163;DHT22;10739;52.198;20.908;2023-09-07T11:49:01;27.60;85.70
21163;DHT22;10739;52.198;20.908;2023-09-07T11:51:27;27.30;86.00
21163;DHT22;10739;52.198;20.908;2023-09-07T11:53:53;27.20;86.20
21163;DHT22;10739;52.198;20.908;2023-09-07T11:56:19;27.10;86.00
21163;DHT22;10739;52.198;20.908;2023-09-07T11:58:45;26.90;87.00
21163;DHT22;10739;52.198;20.908;2023-09-07T12:01:12;26.80;88.70
21163;DHT22;10739;52.198;20.908;2023-09-07T12:03:42;26.90;87.90
21163;DHT22;10739;52.198;20.908;2023-09-07T12:06:12;27.00;88.50
21163;DHT22;10739;52.198;20.908;2023-09-07T12:08:42;27.00;86.80
21163;DHT22;10739;52.198;20.908;2023-09-07T12:11:23;27.00;87.60
21163;DHT22;10739;52.198;20.908;2023-09-07T12:13:49;26.90;88.20
21163;DHT22;10739;52.198;20.908;2023-09-07T12:16:15;26.90;88.80
21163;DHT22;10739;52.198;20.908;2023-09-07T12:18:41;26.80;88.90
21163;DHT22;10739;52.198;20.908;2023-09-07T12:21:07;26.70;90.00
21163;DHT22;10739;52.198;20.908;2023-09-07T12:23:34;26.80;88.20
21163;DHT22;10739;52.198;20.908;2023-09-07T12:26:01;26.90;89.40
21163;DHT22;10739;52.198;20.908;2023-09-07T12:28:31;27.00;87.70
21163;DHT22;10739;52.198;20.908;2023-09-07T12:30:58;27.00;86.30
21163;DHT22;10739;52.198;20.908;2023-09-07T12:33:24;27.00;86.30
21163;DHT22;10739;52.198;20.908;2023-09-07T12:35:50;27.00;86.00
21163;DHT22;10739;52.198;20.908;2023-09-07T12:38:17;26.90;86.00
21163;DHT22;10739;52.198;20.908;2023-09-07T12:40:45;27.00;85.30
21163;DHT22;10739;52.198;20.908;2023-09-07T12:43:11;27.10;86.00
21163;DHT22;10739;52.198;20.908;2023-09-07T12:45:37;27.20;85.60
21163;DHT22;10739;52.198;20.908;2023-09-07T12:48:04;27.10;86.10
21163;DHT22;10739;52.198;20.908;2023-09-07T12:50:31;27.30;84.60
21163;DHT22;10739;52.198;20.908;2023-09-07T12:52:58;27.30;85.20
21163;DHT22;10739;52.198;20.908;2023-09-07T12:55:24;27.50;85.10
21163;DHT22;10739;52.198;20.908;2023-09-07T12:57:50;27.50;84.40
21163;DHT22;10739;52.198;20.908;2023-09-07T13:00:16;27.30;83.90
21163;DHT22;10739;52.198;20.908;2023-09-07T13:02:42;27.20;84.10
21163;DHT22;10739;52.198;20.908;2023-09-07T13:05:08;27.10;84.30
21163;DHT22;10739;52.198;20.908;2023-09-07T13:07:35;27.00;84.30
21163;DHT22;10739;52.198;20.908;2023-09-07T13:10:02;26.90;84.70
21163;DHT22;10739;52.198;20.908;2023-09-07T13:12:32;26.80;85.90
21163;DHT22;10739;52.198;20.908;2023-09-07T13:14:59;26.80;84.30
21163;DHT22;10739;52.198;20.908;2023-09-07T13:17:25;26.60;83.50
21163;DHT22;10739;52.198;20.908;2023-09-07T13:19:51;26.60;85.00
21163;DHT22;10739;52.198;20.908;2023-09-07T13:22:17;26.60;84.70
21163;DHT22;10739;52.198;20.908;2023-09-07T13:24:43;26.60;84.90
21163;DHT22;10739;52.198;20.908;2023-09-07T13:27:09;26.60;84.70
21163;DHT22;10739;52.198;20.908;2023-09-07T13:29:38;26.70;84.70
21163;DHT22;10739;52.198;20.908;2023-09-07T13:32:04;27.00;81.80
21163;DHT22;10739;52.198;20.908;2023-09-07T13:34:31;27.50;82.20
21163;DHT22;10739;52.198;20.908;2023-09-07T13:36:57;28.40;79.60
21163;DHT22;10739;52.198;20.908;2023-09-07T13:39:23;29.30;78.60
21163;DHT22;10739;52.198;20.908;2023-09-07T13:41:50;30.40;77.50
21163;DHT22;10739;52.198;20.908;2023-09-07T13:44:16;31.50;75.50
21163;DHT22;10739;52.198;20.908;2023-09-07T13:46:45;32.20;74.50
21163;DHT22;10739;52.198;20.908;2023-09-07T13:49:12;33.00;72.10
21163;DHT22;10739;52.198;20.908;2023-09-07T13:51:40;32.90;71.70
21163;DHT22;10739;52.198;20.908;2023-09-07T13:54:08;33.00;69.50
21163;DHT22;10739;52.198;20.908;2023-09-07T13:56:34;33.20;70.30
21163;DHT22;10739;52.198;20.908;2023-09-07T13:59:02;33.60;70.10
21163;DHT22;10739;52.198;20.908;2023-09-07T14:01:28;33.40;67.70
21163;DHT22;10739;52.198;20.908;2023-09-07T14:03:54;33.70;67.30
21163;DHT22;10739;52.198;20.908;2023-09-07T14:06:20;34.20;67.50
21163;DHT22;10739;52.198;20.908;2023-09-07T14:08:49;34.80;64.00
21163;DHT22;10739;52.198;20.908;2023-09-07T14:11:17;35.20;65.00
21163;DHT22;10739;52.198;20.908;2023-09-07T14:13:43;35.30;62.30
21163;DHT22;10739;52.198;20.908;2023-09-07T14:16:09;35.30;61.40
21163;DHT22;10739;52.198;20.908;2023-09-07T14:18:36;35.60;64.30
21163;DHT22;10739;52.198;20.908;2023-09-07T14:21:03;35.70;61.00
21163;DHT22;10739;52.198;20.908;2023-09-07T14:23:29;35.30;62.70
21163;DHT22;10739;52.198;20.908;2023-09-07T14:25:56;35.10;62.50
21163;DHT22;10739;52.198;20.908;2023-09-07T14:28:22;34.10;62.90
21163;DHT22;10739;52.198;20.908;2023-09-07T14:30:48;32.70;63.80
21163;DHT22;10739;52.198;20.908;2023-09-07T14:33:14;31.50;66.20
21163;DHT22;10739;52.198;20.908;2023-09-07T14:35:40;30.90;68.40
21163;DHT22;10739;52.198;20.908;2023-09-07T14:38:06;30.30;68.60
21163;DHT22;10739;52.198;20.908;2023-09-07T14:40:33;29.70;69.30
21163;DHT22;10739;52.198;20.908;2023-09-07T14:42:59;29.50;69.50
21163;DHT22;10739;52.198;20.908;2023-09-07T14:45:25;29.10;71.70
21163;DHT22;10739;52.198;20.908;2023-09-07T14:47:51;28.70;71.30
21163;DHT22;10739;52.198;20.908;2023-09-07T14:50:18;28.40;71.90
21163;DHT22;10739;52.198;20.908;2023-09-07T14:52:45;28.10;73.90
21163;DHT22;10739;52.198;20.908;2023-09-07T14:55:13;27.80;76.00
21163;DHT22;10739;52.198;20.908;2023-09-07T14:57:40;27.60;76.90
21163;DHT22;10739;52.198;20.908;2023-09-07T15:00:08;27.30;76.60
21163;DHT22;10739;52.198;20.908;2023-09-07T15:02:35;27.00;77.90
21163;DHT22;10739;52.198;20.908;2023-09-07T15:05:01;26.80;79.90
21163;DHT22;10739;52.198;20.908;2023-09-07T15:07:27;26.60;79.10
21163;DHT22;10739;52.198;20.908;2023-09-07T15:09:53;26.50;80.30
21163;DHT22;10739;52.198;20.908;2023-09-07T15:12:19;26.40;80.10
21163;DHT22;10739;52.198;20.908;2023-09-07T15:14:45;26.30;80.70
21163;DHT22;10739;52.198;20.908;2023-09-07T15:17:11;26.30;82.70
21163;DHT22;10739;52.198;20.908;2023-09-07T15:19:39;26.20;82.00